Time;durP1;ratioP1;P1;durP2;ratioP2;P2;SDS_P1;SDS_P2;PMS_P1;PMS_P2;Temp;Humidity;BMP_temperature;BMP_pressure;BME280_temperature;BME280_humidity;BME280_pressure;Samples;Min_cycle;Max_cycle;Signal;HPM_P1;HPM_P2
2023/09/13 00:02:18;;;;;;;21.23;14.80;;;;;;;14.82;100.00;95353.78;7411958;19;20392;-93
2023/09/13 00:05:18;;;;;;;20.03;16.30;;;;;;;15.81;100.00;95505.03;7412277;19;20409;-93
2023/09/13 00:08:26;;;;;;;22.03;15.30;;;;;;;16.44;100.00;95578.97;7415793;19;20400;-93
2023/09/13 00:11:21;;;;;;;18.50;16.60;;;;;;;16.75;100.00;95702.91;7431156;19;20381;-94
2023/09/13 00:14:11;;;;;;;18.80;16.90;;;;;;;14.36;100.00;95370.34;7430324;19;20425;-96
2023/09/13 00:16:50;;;;;;;19.00;16.17;;;;;;;15.25;100.00;95506.44;7429695;19;20380;-95
2023/09/13 00:22:31;;;;;;;17.97;16.40;;;;;;;16.19;100.00;95684.91;7403723;19;20451;-94
2023/09/13 00:25:05;;;;;;;19.20;16.83;;;;;;;16.39;100.00;95687.97;7420173;19;20365;-94
2023/09/13 00:27:56;;;;;;;18.83;17.13;;;;;;;14.17;100.00;95348.25;7416431;19;20376;-93
2023/09/13 00:30:38;;;;;;;17.60;16.00;;;;;;;15.03;100.00;95494.94;7412161;19;20381;-94
2023/09/13 00:33:24;;;;;;;19.17;17.30;;;;;;;15.49;100.00;95556.34;7416416;19;20408;-94
2023/09/13 00:36:16;;;;;;;18.30;16.57;;;;;;;16.48;100.00;95683.03;7416184;19;20369;-94
2023/09/13 00:39:13;;;;;;;17.53;15.93;;;;;;;15.20;100.00;95518.19;7424466;19;20376;-93
2023/09/13 00:42:10;;;;;;;19.43;17.43;;;;;;;15.15;100.00;95531.88;7423965;19;20393;-93
2023/09/13 00:51:27;;;;;;;24.77;18.70;;;;;;;15.32;100.00;95579.13;7427435;19;20388;-94
2023/09/13 00:54:04;;;;;;;18.87;15.53;;;;;;;14.15;100.00;95405.56;7425344;19;20424;-94
2023/09/13 00:57:06;;;;;;;17.00;15.40;;;;;;;16.29;100.00;95718.06;7434520;19;20412;-93
2023/09/13 00:59:48;;;;;;;18.20;16.60;;;;;;;14.15;100.00;95408.97;7437106;19;20419;-95
2023/09/13 01:02:32;;;;;;;17.30;15.43;;;;;;;16.05;100.00;95720.28;7435506;19;20404;-94
2023/09/13 01:05:16;;;;;;;22.27;17.30;;;;;;;13.69;100.00;95371.50;7433418;19;20381;-95
2023/09/13 01:07:57;;;;;;;20.27;17.13;;;;;;;14.84;100.00;95530.63;7433529;19;20397;-94
2023/09/13 01:10:44;;;;;;;20.17;17.93;;;;;;;16.14;100.00;95715.34;7433000;19;21783;-95
2023/09/13 01:13:18;;;;;;;18.40;16.57;;;;;;;15.66;100.00;95648.19;7433455;19;20424;-94
2023/09/13 01:16:39;;;;;;;19.00;17.20;;;;;;;13.85;100.00;95405.75;7431643;19;20404;-95
2023/09/13 01:19:30;;;;;;;17.23;15.50;;;;;;;15.65;100.00;95698.06;7435207;19;20401;-96
2023/09/13 01:22:24;;;;;;;18.37;16.57;;;;;;;15.89;100.00;95736.63;7436089;19;20381;-94
2023/09/13 01:25:30;;;;;;;16.83;15.43;;;;;;;15.94;100.00;95719.50;7432962;19;20416;-94
2023/09/13 01:28:54;;;;;;;18.60;16.67;;;;;;;16.14;100.00;95735.94;7419094;19;20985;-93
2023/09/13 01:31:50;;;;;;;16.80;15.13;;;;;;;13.95;100.00;95386.47;7433678;19;20397;-94
2023/09/13 01:37:32;;;;;;;18.00;16.30;;;;;;;13.84;100.00;95386.41;7432428;19;20396;-95
2023/09/13 02:04:35;;;;;;;19.53;17.60;;;;;;;15.72;100.00;95707.19;7430565;19;20448;-94
2023/09/13 02:07:20;;;;;;;19.03;17.10;;;;;;;13.69;100.00;95423.84;7429266;19;20376;-95
2023/09/13 02:10:22;;;;;;;18.90;17.00;;;;;;;14.42;100.00;95528.41;7425739;19;20411;-94
2023/09/13 02:13:14;;;;;;;18.83;17.20;;;;;;;14.00;100.00;95503.06;7423674;19;20424;-95
2023/09/13 02:15:54;;;;;;;20.37;17.50;;;;;;;15.18;100.00;95690.91;7424891;19;20397;-94
2023/09/13 02:18:52;;;;;;;20.23;18.30;;;;;;;13.73;100.00;95453.88;7429481;19;20392;-95
2023/09/13 02:21:45;;;;;;;20.80;18.67;;;;;;;14.33;100.00;95547.38;7428216;19;20377;-96
2023/09/13 02:24:26;;;;;;;17.73;16.03;;;;;;;14.77;100.00;95635.09;7423690;19;20421;-95
2023/09/13 02:27:13;;;;;;;18.03;16.43;;;;;;;15.43;100.00;95741.66;7429821;19;20416;-96
2023/09/13 02:29:57;;;;;;;16.47;14.93;;;;;;;14.61;100.00;95620.56;7428977;19;20385;-94
2023/09/13 02:32:45;;;;;;;18.63;16.30;;;;;;;13.96;100.00;95576.69;7428947;19;20412;-95
2023/09/13 02:35:19;;;;;;;18.87;17.17;;;;;;;15.31;100.00;95766.69;7432121;19;20380;-96
2023/09/13 02:38:13;;;;;;;23.03;16.53;;;;;;;15.05;100.00;95693.09;7427252;19;20396;-96
2023/09/13 02:40:55;;;;;;;18.07;15.90;;;;;;;14.48;100.00;95622.72;7425752;19;20417;-95
2023/09/13 02:43:40;;;;;;;16.77;15.07;;;;;;;14.17;100.00;95600.81;7420952;19;20405;-96
2023/09/13 02:46:18;;;;;;;17.47;15.93;;;;;;;14.96;100.00;95753.91;7425001;19;20385;-94
2023/09/13 02:48:55;;;;;;;17.00;15.20;;;;;;;14.31;100.00;95610.03;7426759;19;20373;-95
2023/09/13 02:51:37;;;;;;;16.60;15.20;;;;;;;14.22;100.00;95590.97;7426802;19;20389;-94
2023/09/13 02:54:24;;;;;;;17.07;15.47;;;;;;;13.04;100.00;95414.53;7424949;19;20428;-96
2023/09/13 02:57:15;;;;;;;16.20;14.73;;;;;;;15.19;100.00;95726.28;7425998;19;20393;-96
2023/09/13 02:59:55;;;;;;;17.30;15.60;;;;;;;14.63;100.00;95639.56;7426236;19;20361;-95
2023/09/13 03:02:34;;;;;;;16.27;14.90;;;;;;;13.68;100.00;95504.69;7427545;19;20397;-96
2023/09/13 03:05:22;;;;;;;16.57;15.00;;;;;;;13.43;100.00;95473.34;7422705;19;20579;-96
2023/09/13 03:08:08;;;;;;;18.53;16.50;;;;;;;15.57;100.00;95783.63;7426539;19;20377;-96
2023/09/13 03:11:07;;;;;;;15.63;14.33;;;;;;;15.58;100.00;95791.25;7429736;19;20380;-95
2023/09/13 03:14:22;;;;;;;17.00;15.40;;;;;;;13.36;100.00;95475.19;7423101;19;20432;-96
2023/09/13 03:17:11;;;;;;;15.30;14.00;;;;;;;13.51;100.00;95490.13;7427703;19;20392;-95
2023/09/13 03:19:54;;;;;;;15.37;13.97;;;;;;;15.40;100.00;95769.06;7425435;19;20863;-95
2023/09/13 03:22:46;;;;;;;15.83;14.53;;;;;;;14.23;100.00;95585.28;7425923;19;20393;-96
2023/09/13 03:25:34;;;;;;;16.60;15.20;;;;;;;14.85;100.00;95665.22;7425344;19;20397;-95
2023/09/13 03:28:16;;;;;;;17.17;15.60;;;;;;;15.53;100.00;95764.94;7425414;19;20387;-96
2023/09/13 03:31:10;;;;;;;15.73;14.30;;;;;;;13.93;100.00;95515.53;7423720;19;20401;-94
2023/09/13 03:34:10;;;;;;;16.70;15.10;;;;;;;14.96;100.00;95756.56;7422967;19;20420;-95
2023/09/13 03:36:51;;;;;;;16.63;15.10;;;;;;;13.72;100.00;95596.56;7429748;19;20397;-96
2023/09/13 03:39:41;;;;;;;16.27;14.77;;;;;;;12.69;100.00;95450.16;7427904;19;20377;-95
2023/09/13 03:42:28;;;;;;;17.37;15.53;;;;;;;13.59;100.00;95588.06;7427136;19;20397;-94
2023/09/13 03:45:13;;;;;;;17.63;14.90;;;;;;;13.86;100.00;95602.00;7430725;19;20389;-95
2023/09/13 03:48:22;;;;;;;15.37;13.97;;;;;;;14.03;100.00;95632.56;7430915;19;20370;-94
2023/09/13 03:51:02;;;;;;;15.00;13.70;;;;;;;12.76;100.00;95404.38;7430436;19;20420;-94
2023/09/13 03:53:52;;;;;;;16.73;15.10;;;;;;;13.63;100.00;95531.59;7428029;19;20440;-94
2023/09/13 03:56:49;;;;;;;15.40;13.87;;;;;;;15.15;100.00;95744.91;7431236;19;20383;-94
2023/09/13 03:59:25;;;;;;;15.53;14.23;;;;;;;13.25;100.00;95451.94;7430776;19;20385;-96
2023/09/13 04:02:25;;;;;;;15.53;13.47;;;;;;;14.18;100.00;95674.13;7429622;19;20385;-96
2023/09/13 04:05:10;;;;;;;15.37;14.07;;;;;;;12.92;100.00;95483.75;7428235;19;20388;-96
2023/09/13 04:08:16;;;;;;;14.33;13.13;;;;;;;14.04;100.00;95615.50;7427068;19;20387;-94
2023/09/13 04:11:09;;;;;;;15.50;13.90;;;;;;;13.80;100.00;95582.22;7426697;19;20407;-96
2023/09/13 04:13:44;;;;;;;15.03;13.70;;;;;;;14.97;100.00;95741.34;7434875;19;20415;-96
2023/09/13 04:16:46;;;;;;;17.37;14.57;;;;;;;13.02;100.00;95420.19;7433890;19;20377;-95
2023/09/13 04:19:30;;;;;;;16.30;14.90;;;;;;;15.18;100.00;95733.50;7435799;19;20425;-95
2023/09/13 04:52:43;;;;;;;15.13;13.63;;;;;;;13.24;100.00;95547.88;7428153;19;20374;-91
2023/09/13 04:55:37;;;;;;;16.90;15.17;;;;;;;13.76;100.00;95617.88;7426821;19;20369;-92
2023/09/13 04:58:35;;;;;;;15.07;13.67;;;;;;;14.93;100.00;95764.50;7431100;19;20395;-92
2023/09/13 05:01:30;;;;;;;14.10;12.87;;;;;;;13.01;100.00;95466.44;7425902;19;20899;-92
2023/09/13 05:04:23;;;;;;;14.90;13.60;;;;;;;13.98;100.00;95603.66;7419549;19;20424;-92
2023/09/13 05:07:12;;;;;;;15.73;14.03;;;;;;;13.49;100.00;95505.66;7417451;19;20372;-91
2023/09/13 05:10:00;;;;;;;14.20;13.00;;;;;;;14.51;100.00;95626.56;7415290;19;20372;-92
2023/09/13 05:12:50;;;;;;;15.13;13.33;;;;;;;13.31;100.00;95453.13;7413953;19;20420;-92
2023/09/13 05:16:22;;;;;;;17.00;14.50;;;;;;;14.53;100.00;95643.66;7414837;19;20392;-94
2023/09/13 05:19:32;;;;;;;17.70;13.60;;;;;;;15.62;100.00;95781.41;7418646;19;20385;-92
2023/09/13 05:22:29;;;;;;;17.97;12.93;;;;;;;13.96;100.00;95517.44;7413237;19;20384;-92
2023/09/13 05:25:58;;;;;;;16.03;11.93;;;;;;;14.63;100.00;95607.63;7415855;19;20728;-92
2023/09/13 05:29:26;;;;;;;14.93;13.37;;;;;;;15.12;100.00;95647.13;7414882;19;20413;-92
2023/09/13 05:32:23;;;;;;;14.57;12.73;;;;;;;15.01;100.00;95627.66;7414571;19;20401;-92
2023/09/13 05:35:24;;;;;;;14.40;13.10;;;;;;;16.13;100.00;95815.19;7412282;19;20412;-92
2023/09/13 05:38:06;;;;;;;14.23;12.70;;;;;;;14.92;100.00;95624.56;7417905;19;20472;-92
2023/09/13 05:41:33;;;;;;;15.70;13.40;;;;;;;14.14;100.00;95519.09;7420216;19;20377;-92
2023/09/13 05:48:25;;;;;;;12.47;11.17;;;;;;;16.43;100.00;95816.84;7416761;19;20453;-92
2023/09/13 05:52:04;;;;;;;12.47;11.27;;;;;;;14.25;100.00;95497.16;7417550;19;20385;-92
2023/09/13 05:55:25;;;;;;;13.00;11.63;;;;;;;15.40;100.00;95667.06;7418024;19;20377;-93
2023/09/13 06:02:11;;;;;;;12.50;10.90;;;;;;;14.58;100.00;95525.53;7409690;19;20447;-94
2023/09/13 07:50:47;;;;;;;11.17;9.60;;;;;;;17.96;100.00;95739.38;7411983;19;20392;-91
2023/09/13 07:53:44;;;;;;;9.93;8.93;;;;;;;17.32;100.00;95681.50;7409830;19;20755;-92
2023/09/13 07:56:51;;;;;;;9.00;8.20;;;;;;;17.93;100.00;95791.00;7406767;19;20396;-91
2023/09/13 08:00:12;;;;;;;7.67;6.97;;;;;;;19.01;100.00;95958.16;7409062;19;20416;-92
2023/09/13 10:22:58;;;;;;;3.87;3.53;;;;;;;17.19;100.00;95728.47;7412999;19;20410;-93
2023/09/13 10:29:50;;;;;;;3.33;2.90;;;;;;;19.49;100.00;96052.13;7406708;19;20420;-91
2023/09/13 10:33:36;;;;;;;5.97;3.33;;;;;;;17.66;100.00;95775.38;7412183;19;20381;-93
2023/09/13 10:36:45;;;;;;;12.60;3.33;;;;;;;19.46;100.00;96066.31;7413570;19;20919;-93
2023/09/13 10:40:20;;;;;;;3.37;3.13;;;;;;;17.27;100.00;95771.97;7414584;19;20390;-93
2023/09/13 10:43:47;;;;;;;4.23;3.20;;;;;;;18.14;100.00;95899.84;7411841;19;20400;-93
2023/09/13 10:47:11;;;;;;;4.50;2.80;;;;;;;19.24;100.00;96073.69;7409809;19;20420;-92
2023/09/13 10:53:36;;;;;;;3.63;3.33;;;;;;;16.95;100.00;95754.03;7430624;19;20423;-93
2023/09/13 10:56:40;;;;;;;3.77;3.00;;;;;;;18.00;100.00;95884.59;7434558;19;20424;-93
2023/09/13 10:59:36;;;;;;;9.73;3.60;;;;;;;18.24;100.00;95905.19;7416482;19;20373;-93
2023/09/13 11:02:43;;;;;;;4.97;3.30;;;;;;;18.10;100.00;95889.16;7413753;19;20387;-93
2023/09/13 11:06:20;;;;;;;4.90;3.50;;;;;;;19.42;100.00;96073.63;7410094;19;20415;-92
2023/09/13 11:09:49;;;;;;;3.43;3.10;;;;;;;17.23;100.00;95736.47;7414636;19;20389;-93
2023/09/13 11:12:52;;;;;;;6.13;3.27;;;;;;;18.38;100.00;95946.47;7417705;19;20420;-93
2023/09/13 11:19:13;;;;;;;4.13;3.50;;;;;;;17.81;100.00;95783.38;7422576;19;20381;-92
2023/09/13 11:22:07;;;;;;;2.73;2.53;;;;;;;19.73;100.00;96072.72;7412127;19;20955;-93
